sensor_id;sensor_type;location;lat;lon;timestamp;P1;durP1;ratioP1;P2;durP2;ratioP2
5696;SDS011;2873;50.966;7.210;2022-09-01T00:01:03;3.07;;;2.77;;
5696;SDS011;2873;50.966;7.210;2022-09-01T00:03:39;2.80;;;2.60;;
5696;SDS011;2873;50.966;7.210;2022-09-01T00:06:04;3.58;;;3.00;;
5696;SDS011;2873;50.966;7.210;2022-09-01T00:08:34;3.30;;;3.00;;
5696;SDS011;2873;50.966;7.210;2022-09-01T00:10:59;7.10;;;3.30;;
5696;SDS011;2873;50.966;7.210;2022-09-01T00:13:25;2.70;;;2.50;;
5696;SDS011;2873;50.966;7.210;2022-09-01T00:15:51;2.70;;;2.60;;
5696;SDS011;2873;50.966;7.210;2022-09-01T00:18:16;2.70;;;2.60;;
5696;SDS011;2873;50.966;7.210;2022-09-01T00:20:42;2.70;;;2.50;;
5696;SDS011;2873;50.966;7.210;2022-09-01T00:23:08;2.65;;;2.45;;
5696;SDS011;2873;50.966;7.210;2022-09-01T00:25:33;3.20;;;2.40;;
5696;SDS011;2873;50.966;7.210;2022-09-01T00:27:59;5.90;;;3.00;;
5696;SDS011;2873;50.966;7.210;2022-09-01T00:30:28;2.58;;;2.47;;
5696;SDS011;2873;50.966;7.210;2022-09-01T00:32:54;2.72;;;2.53;;
5696;SDS011;2873;50.966;7.210;2022-09-01T00:35:19;4.90;;;2.70;;
5696;SDS011;2873;50.966;7.210;2022-09-01T00:37:45;2.90;;;2.70;;
5696;SDS011;2873;50.966;7.210;2022-09-01T00:40:11;4.65;;;2.90;;
5696;SDS011;2873;50.966;7.210;2022-09-01T00:42:39;2.80;;;2.70;;
5696;SDS011;2873;50.966;7.210;2022-09-01T00:45:06;3.42;;;3.13;;
5696;SDS011;2873;50.966;7.210;2022-09-01T00:47:34;2.58;;;2.47;;
5696;SDS011;2873;50.966;7.210;2022-09-01T00:50:00;2.60;;;2.50;;
5696;SDS011;2873;50.966;7.210;2022-09-01T00:52:38;4.20;;;2.50;;
5696;SDS011;2873;50.966;7.210;2022-09-01T00:55:11;3.88;;;2.60;;
5696;SDS011;2873;50.966;7.210;2022-09-01T00:57:40;5.82;;;2.70;;
5696;SDS011;2873;50.966;7.210;2022-09-01T01:00:10;4.77;;;3.00;;
5696;SDS011;2873;50.966;7.210;2022-09-01T01:02:36;2.63;;;2.42;;
5696;SDS011;2873;50.966;7.210;2022-09-01T01:05:05;2.58;;;2.40;;
5696;SDS011;2873;50.966;7.210;2022-09-01T01:07:31;2.67;;;2.58;;
5696;SDS011;2873;50.966;7.210;2022-09-01T01:10:05;2.63;;;2.53;;
5696;SDS011;2873;50.966;7.210;2022-09-01T01:12:32;2.40;;;2.20;;
5696;SDS011;2873;50.966;7.210;2022-09-01T01:14:59;4.40;;;2.60;;
5696;SDS011;2873;50.966;7.210;2022-09-01T01:17:27;2.30;;;2.20;;
5696;SDS011;2873;50.966;7.210;2022-09-01T01:19:54;2.33;;;2.20;;
5696;SDS011;2873;50.966;7.210;2022-09-01T01:25:27;2.63;;;2.53;;
5696;SDS011;2873;50.966;7.210;2022-09-01T01:28:06;2.50;;;2.30;;
5696;SDS011;2873;50.966;7.210;2022-09-01T01:30:35;3.20;;;2.25;;
5696;SDS011;2873;50.966;7.210;2022-09-01T01:33:04;3.15;;;2.30;;
5696;SDS011;2873;50.966;7.210;2022-09-01T01:35:30;2.20;;;2.10;;
5696;SDS011;2873;50.966;7.210;2022-09-01T01:37:56;2.38;;;2.28;;
5696;SDS011;2873;50.966;7.210;2022-09-01T01:40:21;2.30;;;2.20;;
5696;SDS011;2873;50.966;7.210;2022-09-01T01:42:50;2.35;;;2.20;;
5696;SDS011;2873;50.966;7.210;2022-09-01T01:45:18;2.80;;;2.50;;
5696;SDS011;2873;50.966;7.210;2022-09-01T01:47:47;3.47;;;2.35;;
5696;SDS011;2873;50.966;7.210;2022-09-01T01:50:21;3.10;;;2.78;;
5696;SDS011;2873;50.966;7.210;2022-09-01T01:52:48;7.68;;;2.35;;
5696;SDS011;2873;50.966;7.210;2022-09-01T01:55:14;2.45;;;2.30;;
5696;SDS011;2873;50.966;7.210;2022-09-01T01:57:43;2.35;;;2.10;;
5696;SDS011;2873;50.966;7.210;2022-09-01T02:00:16;2.65;;;2.55;;
5696;SDS011;2873;50.966;7.210;2022-09-01T02:02:47;2.60;;;2.50;;
5696;SDS011;2873;50.966;7.210;2022-09-01T02:05:27;3.00;;;2.80;;
5696;SDS011;2873;50.966;7.210;2022-09-01T02:08:01;2.92;;;2.22;;
5696;SDS011;2873;50.966;7.210;2022-09-01T02:10:31;2.80;;;2.60;;
5696;SDS011;2873;50.966;7.210;2022-09-01T02:13:04;7.40;;;2.70;;
5696;SDS011;2873;50.966;7.210;2022-09-01T02:15:35;3.70;;;2.30;;
5696;SDS011;2873;50.966;7.210;2022-09-01T02:18:10;2.42;;;2.22;;
5696;SDS011;2873;50.966;7.210;2022-09-01T02:20:45;3.40;;;2.50;;
5696;SDS011;2873;50.966;7.210;2022-09-01T02:23:13;2.60;;;2.40;;
5696;SDS011;2873;50.966;7.210;2022-09-01T02:25:42;2.40;;;2.30;;
5696;SDS011;2873;50.966;7.210;2022-09-01T02:28:10;2.45;;;2.25;;
5696;SDS011;2873;50.966;7.210;2022-09-01T02:30:40;2.65;;;2.45;;
5696;SDS011;2873;50.966;7.210;2022-09-01T02:33:06;2.60;;;2.40;;
5696;SDS011;2873;50.966;7.210;2022-09-01T02:35:33;2.80;;;2.50;;
5696;SDS011;2873;50.966;7.210;2022-09-01T02:38:02;2.40;;;2.30;;
5696;SDS011;2873;50.966;7.210;2022-09-01T02:40:31;2.85;;;2.17;;
5696;SDS011;2873;50.966;7.210;2022-09-01T02:42:57;2.67;;;2.40;;
5696;SDS011;2873;50.966;7.210;2022-09-01T02:45:27;4.25;;;2.20;;
5696;SDS011;2873;50.966;7.210;2022-09-01T02:47:54;2.80;;;2.60;;
5696;SDS011;2873;50.966;7.210;2022-09-01T02:50:21;2.28;;;2.08;;
5696;SDS011;2873;50.966;7.210;2022-09-01T02:52:48;4.78;;;2.08;;
5696;SDS011;2873;50.966;7.210;2022-09-01T02:55:16;2.10;;;1.90;;
5696;SDS011;2873;50.966;7.210;2022-09-01T02:57:45;2.53;;;2.33;;
5696;SDS011;2873;50.966;7.210;2022-09-01T03:00:12;4.50;;;2.35;;
5696;SDS011;2873;50.966;7.210;2022-09-01T03:02:50;3.90;;;2.72;;
5696;SDS011;2873;50.966;7.210;2022-09-01T03:05:20;2.55;;;2.35;;
5696;SDS011;2873;50.966;7.210;2022-09-01T03:07:50;5.90;;;2.40;;
5696;SDS011;2873;50.966;7.210;2022-09-01T03:10:18;3.40;;;2.63;;
5696;SDS011;2873;50.966;7.210;2022-09-01T03:12:45;3.20;;;2.60;;
5696;SDS011;2873;50.966;7.210;2022-09-01T03:15:11;2.50;;;2.30;;
5696;SDS011;2873;50.966;7.210;2022-09-01T03:17:37;2.30;;;2.20;;
5696;SDS011;2873;50.966;7.210;2022-09-01T03:20:03;3.47;;;2.30;;
5696;SDS011;2873;50.966;7.210;2022-09-01T03:22:31;3.58;;;2.60;;
5696;SDS011;2873;50.966;7.210;2022-09-01T03:24:57;2.40;;;2.20;;
5696;SDS011;2873;50.966;7.210;2022-09-01T03:27:23;2.40;;;2.20;;
5696;SDS011;2873;50.966;7.210;2022-09-01T03:29:49;2.63;;;2.27;;
5696;SDS011;2873;50.966;7.210;2022-09-01T03:32:14;2.45;;;2.17;;
5696;SDS011;2873;50.966;7.210;2022-09-01T03:34:40;2.80;;;2.60;;
5696;SDS011;2873;50.966;7.210;2022-09-01T03:37:06;2.97;;;2.50;;
5696;SDS011;2873;50.966;7.210;2022-09-01T03:39:32;2.20;;;1.90;;
5696;SDS011;2873;50.966;7.210;2022-09-01T03:41:58;2.47;;;2.00;;
5696;SDS011;2873;50.966;7.210;2022-09-01T03:44:24;6.77;;;2.50;;
5696;SDS011;2873;50.966;7.210;2022-09-01T03:46:51;2.13;;;2.03;;
5696;SDS011;2873;50.966;7.210;2022-09-01T03:49:17;3.78;;;2.30;;
5696;SDS011;2873;50.966;7.210;2022-09-01T03:51:48;3.28;;;2.30;;
5696;SDS011;2873;50.966;7.210;2022-09-01T03:54:17;2.70;;;2.40;;
5696;SDS011;2873;50.966;7.210;2022-09-01T03:56:43;2.42;;;2.22;;
5696;SDS011;2873;50.966;7.210;2022-09-01T03:59:09;3.80;;;2.20;;
5696;SDS011;2873;50.966;7.210;2022-09-01T04:01:40;2.60;;;2.40;;
5696;SDS011;2873;50.966;7.210;2022-09-01T04:04:07;2.08;;;1.98;;
5696;SDS011;2873;50.966;7.210;2022-09-01T04:06:40;3.40;;;2.42;;
5696;SDS011;2873;50.966;7.210;2022-09-01T04:09:07;2.90;;;2.17;;
5696;SDS011;2873;50.966;7.210;2022-09-01T04:11:34;2.60;;;2.40;;
5696;SDS011;2873;50.966;7.210;2022-09-01T04:14:03;2.50;;;2.30;;
5696;SDS011;2873;50.966;7.210;2022-09-01T04:16:30;2.88;;;2.67;;
5696;SDS011;2873;50.966;7.210;2022-09-01T04:19:16;3.50;;;2.30;;
5696;SDS011;2873;50.966;7.210;2022-09-01T04:21:50;2.57;;;2.37;;
5696;SDS011;2873;50.966;7.210;2022-09-01T04:24:20;2.28;;;2.08;;
5696;SDS011;2873;50.966;7.210;2022-09-01T04:26:48;2.45;;;2.35;;
5696;SDS011;2873;50.966;7.210;2022-09-01T04:29:16;3.95;;;2.40;;
5696;SDS011;2873;50.966;7.210;2022-09-01T04:31:43;2.30;;;2.20;;
5696;SDS011;2873;50.966;7.210;2022-09-01T04:34:09;2.70;;;2.50;;
5696;SDS011;2873;50.966;7.210;2022-09-01T04:36:39;7.72;;;2.47;;
5696;SDS011;2873;50.966;7.210;2022-09-01T04:39:06;6.70;;;2.40;;
5696;SDS011;2873;50.966;7.210;2022-09-01T04:41:42;2.40;;;2.30;;
5696;SDS011;2873;50.966;7.210;2022-09-01T04:44:10;2.30;;;2.20;;
5696;SDS011;2873;50.966;7.210;2022-09-01T04:46:38;2.15;;;1.98;;
5696;SDS011;2873;50.966;7.210;2022-09-01T04:49:06;2.15;;;2.05;;
5696;SDS011;2873;50.966;7.210;2022-09-01T04:51:38;2.67;;;2.47;;
5696;SDS011;2873;50.966;7.210;2022-09-01T04:54:05;2.83;;;2.10;;
5696;SDS011;2873;50.966;7.210;2022-09-01T04:56:36;3.22;;;2.50;;
5696;SDS011;2873;50.966;7.210;2022-09-01T04:59:02;5.97;;;2.65;;
5696;SDS011;2873;50.966;7.210;2022-09-01T05:01:31;3.75;;;2.20;;
5696;SDS011;2873;50.966;7.210;2022-09-01T05:04:07;2.85;;;2.33;;
5696;SDS011;2873;50.966;7.210;2022-09-01T05:06:53;2.60;;;2.40;;
5696;SDS011;2873;50.966;7.210;2022-09-01T05:09:23;5.03;;;2.10;;
5696;SDS011;2873;50.966;7.210;2022-09-01T05:11:49;2.35;;;2.15;;
5696;SDS011;2873;50.966;7.210;2022-09-01T05:14:16;2.17;;;2.08;;
5696;SDS011;2873;50.966;7.210;2022-09-01T05:16:44;3.60;;;2.10;;
5696;SDS011;2873;50.966;7.210;2022-09-01T05:19:10;2.80;;;2.50;;
5696;SDS011;2873;50.966;7.210;2022-09-01T05:21:38;4.22;;;2.20;;
5696;SDS011;2873;50.966;7.210;2022-09-01T05:24:15;2.20;;;2.00;;
5696;SDS011;2873;50.966;7.210;2022-09-01T05:26:43;3.33;;;2.35;;
5696;SDS011;2873;50.966;7.210;2022-09-01T05:29:11;2.20;;;2.10;;
5696;SDS011;2873;50.966;7.210;2022-09-01T05:31:40;2.38;;;2.03;;
5696;SDS011;2873;50.966;7.210;2022-09-01T05:34:06;2.80;;;2.03;;
5696;SDS011;2873;50.966;7.210;2022-09-01T05:36:34;3.00;;;2.00;;
5696;SDS011;2873;50.966;7.210;2022-09-01T05:39:02;2.53;;;1.88;;
5696;SDS011;2873;50.966;7.210;2022-09-01T05:41:29;6.22;;;2.97;;
5696;SDS011;2873;50.966;7.210;2022-09-01T05:43:54;2.63;;;2.30;;
5696;SDS011;2873;50.966;7.210;2022-09-01T05:46:22;2.40;;;2.20;;
5696;SDS011;2873;50.966;7.210;2022-09-01T05:48:51;2.58;;;2.38;;
5696;SDS011;2873;50.966;7.210;2022-09-01T05:51:19;2.65;;;2.13;;
5696;SDS011;2873;50.966;7.210;2022-09-01T05:53:50;4.05;;;2.20;;
5696;SDS011;2873;50.966;7.210;2022-09-01T05:56:19;2.00;;;1.70;;
5696;SDS011;2873;50.966;7.210;2022-09-01T05:58:46;1.98;;;1.80;;
5696;SDS011;2873;50.966;7.210;2022-09-01T06:01:45;2.20;;;1.80;;
5696;SDS011;2873;50.966;7.210;2022-09-01T06:04:05;4.50;;;1.90;;
5696;SDS011;2873;50.966;7.210;2022-09-01T06:06:40;4.30;;;1.90;;
5696;SDS011;2873;50.966;7.210;2022-09-01T06:09:12;2.10;;;1.90;;
5696;SDS011;2873;50.966;7.210;2022-09-01T06:11:39;2.28;;;1.70;;
5696;SDS011;2873;50.966;7.210;2022-09-01T06:14:06;1.95;;;1.85;;
5696;SDS011;2873;50.966;7.210;2022-09-01T06:16:35;4.43;;;1.80;;
5696;SDS011;2873;50.966;7.210;2022-09-01T06:19:01;2.95;;;1.90;;
5696;SDS011;2873;50.966;7.210;2022-09-01T06:21:28;2.65;;;1.70;;
5696;SDS011;2873;50.966;7.210;2022-09-01T06:23:55;3.10;;;2.20;;
5696;SDS011;2873;50.966;7.210;2022-09-01T06:28:53;1.92;;;1.80;;
5696;SDS011;2873;50.966;7.210;2022-09-01T06:31:24;2.30;;;1.63;;
5696;SDS011;2873;50.966;7.210;2022-09-01T06:33:51;3.78;;;1.77;;
5696;SDS011;2873;50.966;7.210;2022-09-01T06:36:19;1.80;;;1.70;;
5696;SDS011;2873;50.966;7.210;2022-09-01T06:38:48;1.92;;;1.83;;
5696;SDS011;2873;50.966;7.210;2022-09-01T06:41:17;19.23;;;1.90;;
5696;SDS011;2873;50.966;7.210;2022-09-01T06:43:48;1.92;;;1.67;;
5696;SDS011;2873;50.966;7.210;2022-09-01T06:46:16;3.42;;;1.95;;
5696;SDS011;2873;50.966;7.210;2022-09-01T06:48:43;1.70;;;1.60;;
5696;SDS011;2873;50.966;7.210;2022-09-01T06:51:13;3.55;;;1.60;;
5696;SDS011;2873;50.966;7.210;2022-09-01T06:53:42;3.33;;;1.60;;
5696;SDS011;2873;50.966;7.210;2022-09-01T06:56:09;1.30;;;1.30;;
5696;SDS011;2873;50.966;7.210;2022-09-01T06:58:37;1.40;;;1.30;;
5696;SDS011;2873;50.966;7.210;2022-09-01T07:01:09;1.52;;;1.42;;
5696;SDS011;2873;50.966;7.210;2022-09-01T07:03:39;3.50;;;1.70;;
5696;SDS011;2873;50.966;7.210;2022-09-01T07:06:07;1.90;;;1.50;;
5696;SDS011;2873;50.966;7.210;2022-09-01T07:08:34;1.90;;;1.60;;
5696;SDS011;2873;50.966;7.210;2022-09-01T07:11:04;2.00;;;1.40;;
5696;SDS011;2873;50.966;7.210;2022-09-01T07:13:40;1.37;;;1.37;;
5696;SDS011;2873;50.966;7.210;2022-09-01T07:16:14;1.58;;;1.48;;
5696;SDS011;2873;50.966;7.210;2022-09-01T07:18:44;2.30;;;1.40;;
5696;SDS011;2873;50.966;7.210;2022-09-01T07:21:09;1.42;;;1.40;;
5696;SDS011;2873;50.966;7.210;2022-09-01T07:23:35;1.47;;;1.37;;
5696;SDS011;2873;50.966;7.210;2022-09-01T07:26:04;1.47;;;1.37;;
5696;SDS011;2873;50.966;7.210;2022-09-01T07:28:30;1.40;;;1.25;;
5696;SDS011;2873;50.966;7.210;2022-09-01T07:30:57;4.30;;;1.60;;
5696;SDS011;2873;50.966;7.210;2022-09-01T07:33:23;2.08;;;1.50;;
5696;SDS011;2873;50.966;7.210;2022-09-01T07:35:49;1.80;;;1.50;;
5696;SDS011;2873;50.966;7.210;2022-09-01T07:38:20;2.50;;;1.38;;
5696;SDS011;2873;50.966;7.210;2022-09-01T07:40:46;3.40;;;1.70;;
5696;SDS011;2873;50.966;7.210;2022-09-01T07:43:17;1.60;;;1.50;;
5696;SDS011;2873;50.966;7.210;2022-09-01T07:45:49;1.80;;;1.70;;
5696;SDS011;2873;50.966;7.210;2022-09-01T07:48:17;3.65;;;1.70;;
5696;SDS011;2873;50.966;7.210;2022-09-01T07:50:44;6.50;;;1.60;;
5696;SDS011;2873;50.966;7.210;2022-09-01T07:53:16;7.05;;;1.73;;
5696;SDS011;2873;50.966;7.210;2022-09-01T07:55:43;2.60;;;1.63;;
5696;SDS011;2873;50.966;7.210;2022-09-01T07:58:11;1.88;;;1.40;;
5696;SDS011;2873;50.966;7.210;2022-09-01T08:00:41;5.55;;;1.95;;
5696;SDS011;2873;50.966;7.210;2022-09-01T08:03:12;4.47;;;1.58;;
5696;SDS011;2873;50.966;7.210;2022-09-01T08:05:38;2.17;;;1.50;;
5696;SDS011;2873;50.966;7.210;2022-09-01T08:08:03;2.10;;;1.90;;
5696;SDS011;2873;50.966;7.210;2022-09-01T08:10:29;2.40;;;1.73;;
5696;SDS011;2873;50.966;7.210;2022-09-01T08:12:55;2.05;;;1.65;;
5696;SDS011;2873;50.966;7.210;2022-09-01T08:15:21;3.53;;;1.60;;
5696;SDS011;2873;50.966;7.210;2022-09-01T08:17:46;1.97;;;1.50;;
5696;SDS011;2873;50.966;7.210;2022-09-01T08:20:12;2.17;;;1.48;;
5696;SDS011;2873;50.966;7.210;2022-09-01T08:22:38;1.50;;;1.50;;
5696;SDS011;2873;50.966;7.210;2022-09-01T08:25:05;4.53;;;1.70;;
5696;SDS011;2873;50.966;7.210;2022-09-01T08:27:32;1.50;;;1.40;;
5696;SDS011;2873;50.966;7.210;2022-09-01T08:30:00;2.03;;;1.30;;
5696;SDS011;2873;50.966;7.210;2022-09-01T08:32:28;3.30;;;1.67;;
5696;SDS011;2873;50.966;7.210;2022-09-01T08:34:54;1.48;;;1.38;;
5696;SDS011;2873;50.966;7.210;2022-09-01T08:37:21;2.60;;;1.48;;
5696;SDS011;2873;50.966;7.210;2022-09-01T08:39:47;1.90;;;1.55;;
5696;SDS011;2873;50.966;7.210;2022-09-01T08:47:23;3.80;;;1.52;;
5696;SDS011;2873;50.966;7.210;2022-09-01T08:49:48;1.63;;;1.53;;
5696;SDS011;2873;50.966;7.210;2022-09-01T08:52:21;1.90;;;1.63;;
5696;SDS011;2873;50.966;7.210;2022-09-01T08:54:55;1.25;;;1.25;;
5696;SDS011;2873;50.966;7.210;2022-09-01T08:57:36;4.80;;;1.30;;
5696;SDS011;2873;50.966;7.210;2022-09-01T09:00:04;4.80;;;1.50;;
5696;SDS011;2873;50.966;7.210;2022-09-01T09:08:21;1.23;;;1.13;;
5696;SDS011;2873;50.966;7.210;2022-09-01T09:16:31;1.40;;;1.30;;
5696;SDS011;2873;50.966;7.210;2022-09-01T09:19:06;2.30;;;1.65;;
5696;SDS011;2873;50.966;7.210;2022-09-01T09:21:38;3.50;;;1.55;;
5696;SDS011;2873;50.966;7.210;2022-09-01T09:24:29;2.50;;;1.67;;
5696;SDS011;2873;50.966;7.210;2022-09-01T09:29:45;2.50;;;1.70;;
5696;SDS011;2873;50.966;7.210;2022-09-01T09:32:15;2.30;;;1.40;;
5696;SDS011;2873;50.966;7.210;2022-09-01T09:34:41;3.30;;;1.70;;
5696;SDS011;2873;50.966;7.210;2022-09-01T09:37:18;3.00;;;1.60;;
5696;SDS011;2873;50.966;7.210;2022-09-01T09:40:13;2.20;;;1.38;;
5696;SDS011;2873;50.966;7.210;2022-09-01T09:45:30;2.23;;;1.60;;
5696;SDS011;2873;50.966;7.210;2022-09-01T09:47:58;1.70;;;1.60;;
5696;SDS011;2873;50.966;7.210;2022-09-01T09:50:30;2.15;;;1.50;;
5696;SDS011;2873;50.966;7.210;2022-09-01T09:58:52;1.40;;;1.40;;
5696;SDS011;2873;50.966;7.210;2022-09-01T10:03:48;4.70;;;1.70;;
5696;SDS011;2873;50.966;7.210;2022-09-01T10:09:13;2.50;;;1.80;;
5696;SDS011;2873;50.966;7.210;2022-09-01T10:11:58;3.70;;;1.90;;
5696;SDS011;2873;50.966;7.210;2022-09-01T10:14:33;3.50;;;1.77;;
5696;SDS011;2873;50.966;7.210;2022-09-01T10:17:16;2.55;;;1.73;;
5696;SDS011;2873;50.966;7.210;2022-09-01T10:19:50;2.10;;;1.70;;
5696;SDS011;2873;50.966;7.210;2022-09-01T10:22:19;3.10;;;1.80;;
5696;SDS011;2873;50.966;7.210;2022-09-01T10:24:46;2.78;;;2.15;;
5696;SDS011;2873;50.966;7.210;2022-09-01T10:27:16;4.27;;;1.93;;
5696;SDS011;2873;50.966;7.210;2022-09-01T10:29:53;2.08;;;1.80;;
5696;SDS011;2873;50.966;7.210;2022-09-01T10:35:28;1.98;;;1.88;;
5696;SDS011;2873;50.966;7.210;2022-09-01T10:37:56;1.85;;;1.75;;
5696;SDS011;2873;50.966;7.210;2022-09-01T10:42:55;2.20;;;1.90;;
5696;SDS011;2873;50.966;7.210;2022-09-01T10:45:33;2.33;;;1.88;;
5696;SDS011;2873;50.966;7.210;2022-09-01T10:53:38;3.90;;;1.70;;
5696;SDS011;2873;50.966;7.210;2022-09-01T10:59:08;2.03;;;1.50;;
5696;SDS011;2873;50.966;7.210;2022-09-01T11:04:14;1.10;;;1.10;;
5696;SDS011;2873;50.966;7.210;2022-09-01T11:06:52;1.42;;;1.33;;
5696;SDS011;2873;50.966;7.210;2022-09-01T11:14:55;2.33;;;1.20;;
5696;SDS011;2873;50.966;7.210;2022-09-01T11:20:30;1.50;;;1.40;;
5696;SDS011;2873;50.966;7.210;2022-09-01T11:36:12;1.83;;;1.73;;
5696;SDS011;2873;50.966;7.210;2022-09-01T11:38:47;2.00;;;1.65;;
5696;SDS011;2873;50.966;7.210;2022-09-01T11:41:23;2.33;;;1.90;;
5696;SDS011;2873;50.966;7.210;2022-09-01T11:43:57;2.60;;;1.70;;
5696;SDS011;2873;50.966;7.210;2022-09-01T11:46:26;2.10;;;2.00;;
5696;SDS011;2873;50.966;7.210;2022-09-01T11:48:54;1.75;;;1.65;;
5696;SDS011;2873;50.966;7.210;2022-09-01T11:51:21;1.95;;;1.85;;
5696;SDS011;2873;50.966;7.210;2022-09-01T11:53:47;2.35;;;1.98;;
5696;SDS011;2873;50.966;7.210;2022-09-01T11:56:19;2.77;;;2.00;;
5696;SDS011;2873;50.966;7.210;2022-09-01T11:58:50;1.73;;;1.63;;
5696;SDS011;2873;50.966;7.210;2022-09-01T12:01:23;1.73;;;1.70;;
5696;SDS011;2873;50.966;7.210;2022-09-01T12:03:57;7.07;;;2.10;;
5696;SDS011;2873;50.966;7.210;2022-09-01T12:06:56;2.00;;;1.90;;
5696;SDS011;2873;50.966;7.210;2022-09-01T12:09:31;2.20;;;2.00;;
5696;SDS011;2873;50.966;7.210;2022-09-01T12:12:24;2.03;;;1.92;;
5696;SDS011;2873;50.966;7.210;2022-09-01T12:17:35;2.00;;;1.90;;
5696;SDS011;2873;50.966;7.210;2022-09-01T12:22:45;1.90;;;1.80;;
5696;SDS011;2873;50.966;7.210;2022-09-01T12:25:17;1.60;;;1.60;;
5696;SDS011;2873;50.966;7.210;2022-09-01T12:27:49;1.70;;;1.60;;
5696;SDS011;2873;50.966;7.210;2022-09-01T12:30:15;1.60;;;1.60;;
5696;SDS011;2873;50.966;7.210;2022-09-01T12:32:42;1.70;;;1.60;;
5696;SDS011;2873;50.966;7.210;2022-09-01T12:35:18;1.52;;;1.50;;
5696;SDS011;2873;50.966;7.210;2022-09-01T12:37:46;1.60;;;1.50;;
5696;SDS011;2873;50.966;7.210;2022-09-01T12:42:49;2.45;;;2.10;;
5696;SDS011;2873;50.966;7.210;2022-09-01T12:51:02;1.90;;;1.80;;
5696;SDS011;2873;50.966;7.210;2022-09-01T12:53:48;3.10;;;1.70;;
5696;SDS011;2873;50.966;7.210;2022-09-01T12:56:25;1.70;;;1.60;;
5696;SDS011;2873;50.966;7.210;2022-09-01T12:59:11;2.85;;;1.50;;
5696;SDS011;2873;50.966;7.210;2022-09-01T13:01:47;1.50;;;1.50;;
5696;SDS011;2873;50.966;7.210;2022-09-01T13:04:19;1.50;;;1.40;;
5696;SDS011;2873;50.966;7.210;2022-09-01T13:06:48;2.03;;;1.40;;
5696;SDS011;2873;50.966;7.210;2022-09-01T13:09:15;1.30;;;1.30;;
5696;SDS011;2873;50.966;7.210;2022-09-01T13:11:40;1.90;;;1.70;;
5696;SDS011;2873;50.966;7.210;2022-09-01T13:14:07;1.65;;;1.65;;
5696;SDS011;2873;50.966;7.210;2022-09-01T13:16:34;1.80;;;1.70;;
5696;SDS011;2873;50.966;7.210;2022-09-01T13:19:01;1.70;;;1.60;;
5696;SDS011;2873;50.966;7.210;2022-09-01T13:21:26;2.10;;;2.00;;
5696;SDS011;2873;50.966;7.210;2022-09-01T13:23:52;2.92;;;2.13;;
5696;SDS011;2873;50.966;7.210;2022-09-01T13:26:18;2.43;;;2.33;;
5696;SDS011;2873;50.966;7.210;2022-09-01T13:28:44;2.60;;;2.40;;
5696;SDS011;2873;50.966;7.210;2022-09-01T13:31:10;4.40;;;2.20;;
5696;SDS011;2873;50.966;7.210;2022-09-01T13:33:36;2.90;;;2.70;;
5696;SDS011;2873;50.966;7.210;2022-09-01T13:36:02;2.40;;;2.30;;
5696;SDS011;2873;50.966;7.210;2022-09-01T13:38:29;2.25;;;2.15;;
5696;SDS011;2873;50.966;7.210;2022-09-01T13:40:56;2.70;;;2.50;;
5696;SDS011;2873;50.966;7.210;2022-09-01T13:43:23;2.70;;;2.50;;
5696;SDS011;2873;50.966;7.210;2022-09-01T13:45:52;2.42;;;2.25;;
5696;SDS011;2873;50.966;7.210;2022-09-01T13:48:18;3.88;;;2.00;;
5696;SDS011;2873;50.966;7.210;2022-09-01T13:50:45;3.63;;;2.30;;
5696;SDS011;2873;50.966;7.210;2022-09-01T13:53:16;2.20;;;2.10;;
5696;SDS011;2873;50.966;7.210;2022-09-01T13:55:42;2.90;;;2.10;;
5696;SDS011;2873;50.966;7.210;2022-09-01T13:58:08;2.40;;;2.00;;
5696;SDS011;2873;50.966;7.210;2022-09-01T14:00:36;2.33;;;2.13;;
5696;SDS011;2873;50.966;7.210;2022-09-01T14:03:08;2.10;;;1.90;;
5696;SDS011;2873;50.966;7.210;2022-09-01T14:05:42;2.28;;;2.17;;
5696;SDS011;2873;50.966;7.210;2022-09-01T14:08:10;2.27;;;2.17;;
5696;SDS011;2873;50.966;7.210;2022-09-01T14:10:38;3.90;;;2.10;;
5696;SDS011;2873;50.966;7.210;2022-09-01T14:13:06;2.40;;;2.30;;
5696;SDS011;2873;50.966;7.210;2022-09-01T14:15:33;2.40;;;2.30;;
5696;SDS011;2873;50.966;7.210;2022-09-01T14:18:00;2.30;;;2.20;;
5696;SDS011;2873;50.966;7.210;2022-09-01T14:20:27;2.42;;;2.15;;
5696;SDS011;2873;50.966;7.210;2022-09-01T14:22:55;2.50;;;2.40;;
5696;SDS011;2873;50.966;7.210;2022-09-01T14:25:21;2.60;;;2.40;;
5696;SDS011;2873;50.966;7.210;2022-09-01T14:27:47;2.50;;;2.40;;
5696;SDS011;2873;50.966;7.210;2022-09-01T14:30:18;2.30;;;2.20;;
5696;SDS011;2873;50.966;7.210;2022-09-01T14:32:46;2.90;;;2.25;;
5696;SDS011;2873;50.966;7.210;2022-09-01T14:35:13;2.78;;;2.58;;
5696;SDS011;2873;50.966;7.210;2022-09-01T14:37:39;2.33;;;2.22;;
5696;SDS011;2873;50.966;7.210;2022-09-01T14:40:06;2.50;;;2.30;;
5696;SDS011;2873;50.966;7.210;2022-09-01T14:42:34;2.40;;;2.30;;
5696;SDS011;2873;50.966;7.210;2022-09-01T14:45:01;2.63;;;2.50;;
5696;SDS011;2873;50.966;7.210;2022-09-01T14:47:27;2.17;;;2.07;;
5696;SDS011;2873;50.966;7.210;2022-09-01T14:49:53;2.22;;;2.13;;
5696;SDS011;2873;50.966;7.210;2022-09-01T14:52:19;2.40;;;2.20;;
5696;SDS011;2873;50.966;7.210;2022-09-01T14:54:45;2.40;;;2.20;;
5696;SDS011;2873;50.966;7.210;2022-09-01T14:57:12;2.15;;;2.00;;
5696;SDS011;2873;50.966;7.210;2022-09-01T14:59:38;2.40;;;2.30;;
5696;SDS011;2873;50.966;7.210;2022-09-01T15:02:05;2.60;;;2.20;;
5696;SDS011;2873;50.966;7.210;2022-09-01T15:04:32;2.95;;;2.20;;
5696;SDS011;2873;50.966;7.210;2022-09-01T15:06:58;2.63;;;2.20;;
5696;SDS011;2873;50.966;7.210;2022-09-01T15:09:24;3.03;;;2.28;;
5696;SDS011;2873;50.966;7.210;2022-09-01T15:11:49;2.80;;;2.30;;
5696;SDS011;2873;50.966;7.210;2022-09-01T15:14:15;2.30;;;2.10;;
5696;SDS011;2873;50.966;7.210;2022-09-01T15:16:41;2.30;;;2.10;;
5696;SDS011;2873;50.966;7.210;2022-09-01T15:19:07;2.28;;;2.10;;
5696;SDS011;2873;50.966;7.210;2022-09-01T15:21:38;2.30;;;2.20;;
5696;SDS011;2873;50.966;7.210;2022-09-01T15:24:07;4.28;;;2.10;;
5696;SDS011;2873;50.966;7.210;2022-09-01T15:26:34;6.75;;;2.60;;
5696;SDS011;2873;50.966;7.210;2022-09-01T15:29:00;8.60;;;2.20;;
5696;SDS011;2873;50.966;7.210;2022-09-01T15:31:26;5.05;;;2.20;;
5696;SDS011;2873;50.966;7.210;2022-09-01T15:33:56;2.10;;;2.00;;
5696;SDS011;2873;50.966;7.210;2022-09-01T15:36:24;2.10;;;2.00;;
5696;SDS011;2873;50.966;7.210;2022-09-01T15:38:52;2.10;;;2.00;;
5696;SDS011;2873;50.966;7.210;2022-09-01T15:41:23;2.20;;;2.05;;
5696;SDS011;2873;50.966;7.210;2022-09-01T15:43:54;2.30;;;2.20;;
5696;SDS011;2873;50.966;7.210;2022-09-01T15:46:20;2.30;;;2.10;;
5696;SDS011;2873;50.966;7.210;2022-09-01T15:48:47;2.08;;;1.88;;
5696;SDS011;2873;50.966;7.210;2022-09-01T15:53:47;3.15;;;2.20;;
5696;SDS011;2873;50.966;7.210;2022-09-01T15:56:13;2.10;;;2.00;;
5696;SDS011;2873;50.966;7.210;2022-09-01T15:58:42;2.28;;;2.00;;
5696;SDS011;2873;50.966;7.210;2022-09-01T16:01:08;4.20;;;1.80;;
5696;SDS011;2873;50.966;7.210;2022-09-01T16:03:33;4.37;;;1.90;;
5696;SDS011;2873;50.966;7.210;2022-09-01T16:06:01;3.63;;;2.00;;
5696;SDS011;2873;50.966;7.210;2022-09-01T16:08:27;2.25;;;1.85;;
5696;SDS011;2873;50.966;7.210;2022-09-01T16:10:53;4.53;;;1.70;;
5696;SDS011;2873;50.966;7.210;2022-09-01T16:13:19;2.00;;;1.90;;
5696;SDS011;2873;50.966;7.210;2022-09-01T16:15:59;2.05;;;1.70;;
5696;SDS011;2873;50.966;7.210;2022-09-01T16:18:58;3.00;;;1.77;;
5696;SDS011;2873;50.966;7.210;2022-09-01T16:21:39;2.30;;;1.85;;
5696;SDS011;2873;50.966;7.210;2022-09-01T16:24:20;6.03;;;2.00;;
5696;SDS011;2873;50.966;7.210;2022-09-01T16:26:47;1.83;;;1.73;;
5696;SDS011;2873;50.966;7.210;2022-09-01T16:29:30;3.03;;;1.70;;
5696;SDS011;2873;50.966;7.210;2022-09-01T16:32:03;3.63;;;1.73;;
5696;SDS011;2873;50.966;7.210;2022-09-01T16:34:29;2.70;;;1.70;;
5696;SDS011;2873;50.966;7.210;2022-09-01T16:42:24;3.60;;;3.30;;
5696;SDS011;2873;50.966;7.210;2022-09-01T17:04:37;2.50;;;2.40;;
5696;SDS011;2873;50.966;7.210;2022-09-01T17:07:13;2.60;;;2.00;;
5696;SDS011;2873;50.966;7.210;2022-09-01T17:12:28;2.50;;;2.30;;
5696;SDS011;2873;50.966;7.210;2022-09-01T17:15:08;3.88;;;1.90;;
5696;SDS011;2873;50.966;7.210;2022-09-01T17:17:41;1.75;;;1.65;;
5696;SDS011;2873;50.966;7.210;2022-09-01T17:20:22;1.73;;;1.63;;
5696;SDS011;2873;50.966;7.210;2022-09-01T17:22:59;1.40;;;1.30;;
5696;SDS011;2873;50.966;7.210;2022-09-01T17:25:34;1.70;;;1.60;;
5696;SDS011;2873;50.966;7.210;2022-09-01T17:28:17;1.60;;;1.50;;
5696;SDS011;2873;50.966;7.210;2022-09-01T17:30:58;3.80;;;1.50;;